Latest Weather Observations for Ernabella/Pukatja

IDS60801

Issued at 8:32 pm CST Friday 22 May 2015 (issued every 30 minutes, with the page automatically refreshed every 10 minutes)

About weather observations | Map of weather stations | Latest weather observations for SA | Other Formats
Station Details ID: 016097 Name: PUKATJA Lat: -26.26 Lon: 132.18 Height: 703.2 m
Data from the previous 72 hours. | See also: Recent months at Ernabella/Pukatja
Date/Time
CST
Temp
°C
App
Temp
°C
Dew
Point
Rel
Hum
%
Delta-T
°C
Wind Press
QNH
hPa
Press
MSL
hPa
Rain
since 9 am
mm
Dir
 
Spd
km/h
Gust
km/h
Spd
kts
Gust
kts
22/08:30pm 7.2 3.2 -2.0 52 3.6 E 9 11 5 6 1027.8 - 0.0
22/08:00pm 7.9 3.6 -1.9 50 3.8 E 11 13 6 7 1027.1 - 0.0
22/07:30pm 8.9 4.2 -1.5 48 4.2 E 13 15 7 8 1026.9 - 0.0
22/07:00pm 9.4 5.5 -1.6 46 4.4 NE 9 13 5 7 1027.0 - 0.0
22/06:30pm 11.1 6.1 -1.3 42 5.1 E 15 17 8 9 1026.5 - 0.0
22/06:00pm 12.3 6.4 -2.0 37 5.8 E 19 24 10 13 1026.4 1024.9 0.0
22/05:30pm 13.4 6.9 -2.1 34 6.4 E 22 30 12 16 1026.2 - 0.0
22/05:00pm 13.8 7.7 -2.2 33 6.6 ENE 20 26 11 14 1026.5 - 0.0
22/04:30pm 15.0 8.9 -2.0 31 7.2 E 20 28 11 15 1026.8 - 0.0
22/04:00pm 13.9 8.0 -2.1 33 6.7 ENE 19 24 10 13 1026.7 - 0.0
22/03:30pm 14.5 8.6 -2.0 32 6.9 E 19 24 10 13 1027.0 - 0.0
22/03:00pm 14.4 9.0 -1.6 33 6.7 E 17 28 9 15 1026.8 1025.3 0.0
22/02:30pm 13.9 8.4 -2.1 33 6.7 E 17 24 9 13 1027.1 - 0.0
22/02:00pm 14.2 8.4 -1.4 34 6.6 NE 19 28 10 15 1027.1 - 0.0
22/01:30pm 14.5 9.2 -0.8 35 6.5 E 17 24 9 13 1027.1 - 0.0
22/01:00pm 13.2 7.2 -1.2 37 6.1 ENE 20 30 11 16 1027.8 - 0.0
22/12:30pm 12.4 6.7 -0.8 40 5.6 ENE 19 32 10 17 1028.2 - 0.0
22/12:00pm 12.7 7.5 -0.2 41 5.5 E 17 28 9 15 1028.9 1027.5 0.0
22/11:30am 11.7 6.4 -0.4 43 5.1 ENE 17 24 9 13 1029.7 - 0.0
22/11:00am 10.8 5.2 0.2 48 4.5 E 19 26 10 14 1029.7 - 0.0
22/10:30am 10.8 5.1 0.5 49 4.4 ENE 20 30 11 16 1029.9 - 0.0
22/10:00am 9.4 2.9 0.3 53 3.8 E 24 28 13 15 1029.6 - 0.0
22/09:30am 9.0 2.6 0.7 56 3.5 E 24 30 13 16 1030.2 - 0.0
22/09:00am 9.0 2.6 0.7 56 3.5 ENE 24 28 13 15 1030.2 1028.8 0.0
22/08:30am 7.3 2.5 0.5 62 2.8 ENE 15 19 8 10 1030.2 - 0.0
22/08:00am 4.8 1.1 0.2 72 1.8 ENE 9 13 5 7 1030.0 - 0.0
22/07:30am 1.4 -2.9 -1.7 80 1.1 NE 11 13 6 7 1029.9 - 0.0
22/07:00am 1.7 -2.5 -0.9 83 1.0 E 11 13 6 7 1029.6 - 0.0
22/06:30am 2.0 -2.2 -1.2 79 1.2 E 11 11 6 6 1029.4 - 0.0
22/06:00am 2.8 -1.0 -0.8 77 1.4 E 9 11 5 6 1029.2 1027.7 0.0
22/05:30am 3.7 -0.4 -0.3 75 1.6 E 11 13 6 7 1028.7 - 0.0
22/05:00am 2.8 -1.4 -1.2 75 1.5 ENE 11 11 6 6 1028.5 - 0.0
22/04:30am 4.3 -0.2 -0.3 72 1.8 NE 13 13 7 7 1028.5 - 0.0
22/04:00am 5.8 1.0 0.2 67 2.3 ENE 15 20 8 11 1028.0 - 0.0
22/03:30am 6.7 1.0 0.6 65 2.5 E 20 24 11 13 1028.1 - 0.0
22/03:00am 7.3 0.8 0.5 62 2.8 E 24 33 13 18 1027.9 1026.4 0.0
22/02:30am 7.5 2.0 0.3 60 3.0 E 19 26 10 14 1027.9 - 0.0
22/02:00am 7.8 1.6 -0.2 57 3.3 E 22 33 12 18 1028.2 - 0.0
22/01:30am 8.1 2.2 -0.9 53 3.6 E 20 30 11 16 1028.4 - 0.0
22/01:00am 8.1 3.1 -1.1 52 3.7 E 15 19 8 10 1028.3 - 0.0
22/12:30am 8.6 3.1 -1.8 48 4.1 ESE 17 24 9 13 1028.5 - 0.0
22/12:00am 8.9 3.0 -2.1 46 4.3 ESE 19 26 10 14 1028.7 1027.3 0.0
 
Date/Time
CST
Temp
°C
App
Temp
°C
Dew
Point
Rel
Hum
%
Delta-T
°C
Wind Press
QNH
hPa
Press
MSL
hPa
Rain
since 9 am
mm
Dir
 
Spd
km/h
Gust
km/h
Spd
kts
Gust
kts
21/11:30pm 8.9 3.0 -2.4 45 4.4 ESE 19 24 10 13 1028.9 - 0.0
21/11:00pm 9.3 3.4 -2.3 44 4.6 ESE 19 24 10 13 1029.2 - 0.0
21/10:30pm 9.4 3.4 -2.8 42 4.8 ESE 19 26 10 14 1029.5 - 0.0
21/10:00pm 9.6 3.4 -3.0 41 4.9 ESE 20 30 11 16 1029.5 - 0.0
21/09:30pm 9.6 3.6 -3.0 41 4.9 ESE 19 24 10 13 1029.4 - 0.0
21/09:00pm 9.7 4.1 -2.6 42 4.8 ESE 17 22 9 12 1029.6 1028.1 0.0
21/08:30pm 10.2 5.0 -2.8 40 5.1 ESE 15 20 8 11 1029.5 - 0.0
21/08:00pm 10.2 5.8 -2.4 41 5.0 ESE 11 19 6 10 1028.9 - 0.0
21/07:30pm 10.8 6.0 -2.6 39 5.3 ESE 13 19 7 10 1028.5 - 0.0
21/07:00pm 11.7 5.8 -2.5 37 5.7 ESE 19 24 10 13 1028.2 - 0.0
21/06:30pm 12.2 7.0 -2.4 36 5.9 SE 15 22 8 12 1028.0 - 0.0
21/06:00pm 12.7 7.6 -2.0 36 6.0 SE 15 20 8 11 1027.8 1026.3 0.0
21/05:30pm 13.6 7.7 -1.9 34 6.5 ESE 19 26 10 14 1027.3 - 0.0
21/05:00pm 14.4 8.3 -2.1 32 6.9 ESE 20 32 11 17 1027.1 - 0.0
21/04:30pm 15.0 8.9 -2.4 30 7.3 ESE 20 32 11 17 1026.9 - 0.0
21/04:00pm 15.0 8.6 -1.5 32 7.0 SSE 22 28 12 15 1026.9 - 0.0
21/03:30pm 14.7 8.7 -1.4 33 6.9 ESE 20 30 11 16 1026.9 - 0.0
21/03:00pm 14.9 9.2 -0.8 34 6.7 ESE 19 30 10 16 1027.1 1025.6 0.0
21/02:30pm 15.1 9.9 -0.2 35 6.7 ESE 17 30 9 16 1027.3 - 0.0
21/02:00pm 14.4 7.8 -0.5 36 6.5 SSE 24 32 13 17 1027.5 - 0.0
21/01:30pm 14.8 10.1 1.0 39 6.2 E 15 30 8 16 1028.1 - 0.0
21/01:00pm 13.3 7.8 0.7 42 5.5 E 19 26 10 14 1028.6 - 0.0
21/12:30pm 13.2 7.8 1.5 45 5.2 E 19 28 10 15 1029.2 - 0.0
21/12:00pm 12.3 6.9 2.2 50 4.5 SSE 20 28 11 15 1029.6 1028.1 0.0
21/11:30am 11.9 6.4 1.8 50 4.5 SE 20 28 11 15 1029.9 - 0.0
21/11:00am 11.5 6.4 3.3 57 3.8 SE 19 30 10 16 1030.3 - 0.0
21/10:30am 10.0 4.9 3.1 62 3.1 SE 19 26 10 14 1030.4 - 0.0
21/10:00am 9.9 5.2 3.2 63 3.0 ESE 17 26 9 14 1030.3 - 0.0
21/09:30am 8.2 3.0 3.7 73 2.0 SSE 20 35 11 19 1030.1 - 0.0
21/09:00am 7.2 1.7 4.0 80 1.4 SSE 22 30 12 16 1029.9 1028.5 0.2
21/08:30am 6.5 1.3 3.8 83 1.2 SSE 20 30 11 16 1029.6 - 0.2
21/08:00am 6.4 1.8 3.7 83 1.2 SE 17 28 9 15 1029.0 - 0.2
21/07:30am 6.4 1.7 2.9 78 1.5 SSE 17 24 9 13 1028.6 - 0.2
21/07:00am 6.4 1.7 3.0 79 1.5 S 17 26 9 14 1028.2 - 0.2
21/06:30am 6.9 1.5 2.4 73 1.9 S 20 30 11 16 1027.9 - 0.2
21/06:00am 6.8 1.5 2.9 76 1.7 S 20 37 11 20 1027.8 1026.3 0.2
21/05:30am 6.9 0.9 3.2 77 1.6 S 24 32 13 17 1027.5 - 0.2
21/05:00am 7.2 1.6 3.6 78 1.6 S 22 32 12 17 1027.4 - 0.2
21/04:30am 7.1 1.5 3.3 77 1.7 S 22 32 12 17 1027.2 - 0.2
21/04:00am 7.5 1.9 3.6 76 1.7 SSE 22 33 12 18 1026.9 - 0.2
21/03:30am 7.9 0.8 3.8 75 1.8 SSE 30 39 16 21 1026.7 - 0.2
21/03:00am 8.1 1.0 3.6 73 2.0 SSE 30 43 16 23 1026.9 1025.4 0.2
21/02:30am 8.5 1.4 3.6 71 2.2 SSE 30 39 16 21 1027.0 - 0.2
21/02:00am 8.6 1.4 2.8 67 2.6 SSE 30 35 16 19 1027.1 - 0.2
21/01:30am 9.2 1.4 2.8 64 2.8 SSE 33 43 18 23 1027.0 - 0.2
21/01:00am 9.7 2.4 2.3 60 3.3 SSE 30 39 16 21 1027.1 - 0.2
21/12:30am 10.4 3.5 2.7 59 3.5 S 28 41 15 22 1027.0 - 0.2
21/12:00am 10.6 5.6 3.4 61 3.3 S 19 28 10 15 1027.0 1025.5 0.2
 
Date/Time
CST
Temp
°C
App
Temp
°C
Dew
Point
Rel
Hum
%
Delta-T
°C
Wind Press
QNH
hPa
Press
MSL
hPa
Rain
since 9 am
mm
Dir
 
Spd
km/h
Gust
km/h
Spd
kts
Gust
kts
20/11:30pm 10.9 4.8 2.7 57 3.7 S 24 32 13 17 1027.0 - 0.2
20/11:00pm 11.0 5.5 4.2 63 3.2 S 22 43 12 23 1027.1 - 0.2
20/10:30pm 11.4 5.4 5.1 65 3.0 SSE 26 35 14 19 1027.1 - 0.2
20/10:00pm 11.8 5.4 5.4 65 3.1 S 28 35 15 19 1026.9 - 0.2
20/09:30pm 12.6 6.7 5.8 63 3.3 SSE 26 33 14 18 1026.5 - 0.2
20/09:00pm 12.9 7.7 5.6 61 3.5 S 22 32 12 17 1026.4 1024.9 0.2
20/08:30pm 13.7 7.5 6.1 60 3.8 S 28 41 15 22 1025.9 - 0.2
20/08:00pm 14.0 8.6 6.4 60 3.8 S 24 35 13 19 1025.4 - 0.2
20/07:30pm 14.3 7.8 6.4 59 4.0 S 30 41 16 22 1025.1 - 0.2
20/07:00pm 14.7 9.4 6.8 59 4.0 S 24 37 13 20 1024.6 - 0.2
20/06:30pm 15.4 11.0 7.2 58 4.2 S 20 33 11 18 1024.1 - 0.2
20/06:00pm 15.9 11.0 7.1 56 4.5 S 22 30 12 16 1023.7 1022.2 0.2
20/05:30pm 16.6 11.4 7.3 54 4.8 S 24 32 13 17 1023.2 - 0.2
20/05:00pm 17.7 13.3 7.4 51 5.4 S 20 28 11 15 1022.6 - 0.2
20/04:30pm 17.6 13.4 7.6 52 5.2 S 19 28 10 15 1022.2 - 0.2
20/04:00pm 18.5 13.6 7.0 47 6.0 S 22 30 12 16 1022.0 - 0.2
20/03:30pm 18.9 14.0 7.0 46 6.2 SSE 22 28 12 15 1022.1 - 0.2
20/03:00pm 19.0 15.8 6.8 45 6.3 S 13 24 7 13 1022.0 1020.4 0.2
20/02:30pm 18.8 14.6 7.3 47 6.0 S 19 30 10 16 1022.2 - 0.2
20/02:00pm 19.0 14.7 7.8 48 5.9 SW 20 28 11 15 1022.2 - 0.2
20/01:30pm 17.5 14.1 7.5 52 5.2 SSE 15 26 8 14 1022.5 - 0.2
20/01:00pm 17.5 14.1 7.5 52 5.2 S 15 24 8 13 1022.7 - 0.2
20/12:30pm 17.1 13.6 7.2 52 5.1 S 15 24 8 13 1023.1 - 0.2
20/12:00pm 18.0 13.8 7.4 50 5.5 SW 19 28 10 15 1023.5 1021.9 0.0
20/11:30am 17.0 13.5 7.4 53 5.0 S 15 26 8 14 1023.5 - 0.0
20/11:00am 16.4 12.5 7.1 54 4.8 SSE 17 20 9 11 1023.9 - 0.0
20/10:30am 16.0 12.5 7.0 55 4.6 S 15 24 8 13 1024.0 - 0.0
20/10:00am 15.5 11.3 7.5 59 4.1 SW 19 24 10 13 1023.8 - 0.0
20/09:30am 14.5 9.7 8.7 68 3.0 WSW 24 30 13 16 1023.6 - 0.0
20/09:00am 15.2 12.6 7.7 61 3.9 SW 11 17 6 9 1023.2 1021.6 0.0
20/08:30am 13.8 10.6 8.6 71 2.7 WSW 15 20 8 11 1022.6 - 0.0
20/08:00am 12.0 11.0 8.7 80 1.7 NW 4 9 2 5 1022.5 - 0.0
20/07:30am 11.1 9.4 8.5 84 1.3 SSW 7 9 4 5 1022.1 - 0.0
20/07:00am 11.7 10.6 8.6 81 1.6 NNW 4 9 2 5 1022.0 - 0.0
20/06:30am 11.9 10.5 9.5 85 1.3 WSW 7 7 4 4 1021.9 - 0.0
20/06:00am 11.9 10.3 8.9 82 1.6 N 7 9 4 5 1021.6 1020.0 0.0
20/05:30am 12.4 10.8 8.1 75 2.2 WNW 6 7 3 4 1021.4 - 0.0
20/05:00am 12.5 10.4 8.4 76 2.1 S 9 13 5 7 1021.9 - 0.0
20/04:30am 13.3 10.2 7.1 66 3.1 SSW 13 20 7 11 1022.2 - 0.0
20/04:00am 14.7 12.5 5.5 54 4.5 N 6 9 3 5 1022.3 - 0.0
20/03:30am 15.6 12.9 3.7 45 5.7 SSW 7 11 4 6 1021.4 - 0.0
20/03:00am 15.9 13.4 3.7 44 5.8 S 6 11 3 6 1021.3 1019.8 0.0
20/02:30am 16.4 11.2 3.5 42 6.2 S 20 30 11 16 1020.9 - 0.0
20/02:00am 16.5 11.4 3.2 41 6.3 SSW 19 28 10 15 1020.9 - 0.0
20/01:30am 16.8 11.7 3.1 40 6.5 SSW 19 26 10 14 1021.2 - 0.0
20/01:00am 17.0 12.7 3.3 40 6.6 SW 15 19 8 10 1020.6 - 0.0
20/12:30am 17.4 12.2 3.3 39 6.8 SSW 20 28 11 15 1020.6 - 0.0
20/12:00am 17.6 12.9 3.1 38 6.9 SSW 17 24 9 13 1020.6 1019.0 0.0
 
Date/Time
CST
Temp
°C
App
Temp
°C
Dew
Point
Rel
Hum
%
Delta-T
°C
Wind Press
QNH
hPa
Press
MSL
hPa
Rain
since 9 am
mm
Dir
 
Spd
km/h
Gust
km/h
Spd
kts
Gust
kts
19/11:30pm 17.8 13.1 2.9 37 7.1 SSW 17 20 9 11 1020.7 - 0.0
19/11:00pm 17.9 12.8 3.0 37 7.1 SSW 19 30 10 16 1020.6 - 0.0
19/10:30pm 18.2 13.9 3.3 37 7.2 SSW 15 20 8 11 1020.3 - 0.0
19/10:00pm 18.4 14.8 3.1 36 7.4 SSW 11 20 6 11 1019.9 - 0.0
19/09:30pm 18.8 14.8 3.0 35 7.6 SSW 13 20 7 11 1020.1 - 0.0
19/09:00pm 19.3 14.5 2.6 33 8.0 SSW 17 28 9 15 1020.1 1018.5 0.0

Other Formats:

Comma delimited format used in spreadsheet applications
http://www.bom.gov.au/fwo/IDS60801/IDS60801.94474.axf

JavaScript Object Notation format (JSON) in row-major order
http://www.bom.gov.au/fwo/IDS60801/IDS60801.94474.json